sensor_id;sensor_type;location;lat;lon;timestamp;temperature;humidity
72114;SHT31;59989;46.220;19.888;2023-02-04T00:02:28;4.91;81.94
72114;SHT31;59989;46.220;19.888;2023-02-04T00:05:31;4.86;82.23
72114;SHT31;59989;46.220;19.888;2023-02-04T00:08:34;4.79;82.33
72114;SHT31;59989;46.220;19.888;2023-02-04T00:11:38;4.74;82.62
72114;SHT31;59989;46.220;19.888;2023-02-04T00:14:41;4.67;82.93
72114;SHT31;59989;46.220;19.888;2023-02-04T00:17:43;4.63;83.25
72114;SHT31;59989;46.220;19.888;2023-02-04T00:20:46;4.70;82.79
72114;SHT31;59989;46.220;19.888;2023-02-04T00:23:48;4.74;82.81
72114;SHT31;59989;46.220;19.888;2023-02-04T00:26:52;4.76;82.34
72114;SHT31;59989;46.220;19.888;2023-02-04T00:29:54;4.79;82.44
72114;SHT31;59989;46.220;19.888;2023-02-04T00:32:58;4.70;82.65
72114;SHT31;59989;46.220;19.888;2023-02-04T00:36:01;4.70;82.30
72114;SHT31;59989;46.220;19.888;2023-02-04T00:39:03;4.74;82.10
72114;SHT31;59989;46.220;19.888;2023-02-04T00:42:07;4.77;81.83
72114;SHT31;59989;46.220;19.888;2023-02-04T00:45:10;4.70;82.42
72114;SHT31;59989;46.220;19.888;2023-02-04T00:48:13;4.66;82.47
72114;SHT31;59989;46.220;19.888;2023-02-04T00:51:16;4.69;82.01
72114;SHT31;59989;46.220;19.888;2023-02-04T00:54:18;4.56;82.76
72114;SHT31;59989;46.220;19.888;2023-02-04T00:57:21;4.55;82.70
72114;SHT31;59989;46.220;19.888;2023-02-04T01:00:23;4.53;82.88
72114;SHT31;59989;46.220;19.888;2023-02-04T01:03:26;4.50;82.77
72114;SHT31;59989;46.220;19.888;2023-02-04T01:06:30;4.44;82.95
72114;SHT31;59989;46.220;19.888;2023-02-04T01:09:32;4.45;83.03
72114;SHT31;59989;46.220;19.888;2023-02-04T01:12:35;4.48;82.95
72114;SHT31;59989;46.220;19.888;2023-02-04T01:15:39;4.45;83.16
72114;SHT31;59989;46.220;19.888;2023-02-04T01:18:42;4.46;83.09
72114;SHT31;59989;46.220;19.888;2023-02-04T01:21:44;4.46;82.91
72114;SHT31;59989;46.220;19.888;2023-02-04T01:24:47;4.62;82.70
72114;SHT31;59989;46.220;19.888;2023-02-04T01:28:09;4.66;82.34
72114;SHT31;59989;46.220;19.888;2023-02-04T01:31:13;4.69;82.39
72114;SHT31;59989;46.220;19.888;2023-02-04T01:34:16;4.76;82.24
72114;SHT31;59989;46.220;19.888;2023-02-04T01:37:19;4.80;82.26
72114;SHT31;59989;46.220;19.888;2023-02-04T01:40:22;4.86;82.15
72114;SHT31;59989;46.220;19.888;2023-02-04T01:43:25;4.74;82.90
72114;SHT31;59989;46.220;19.888;2023-02-04T01:46:30;4.76;82.99
72114;SHT31;59989;46.220;19.888;2023-02-04T01:49:35;4.80;83.08
72114;SHT31;59989;46.220;19.888;2023-02-04T01:52:38;4.79;83.26
72114;SHT31;59989;46.220;19.888;2023-02-04T01:55:41;4.90;83.22
72114;SHT31;59989;46.220;19.888;2023-02-04T01:58:44;4.87;83.30
72114;SHT31;59989;46.220;19.888;2023-02-04T02:01:50;4.94;83.23
72114;SHT31;59989;46.220;19.888;2023-02-04T02:04:53;4.97;83.40
72114;SHT31;59989;46.220;19.888;2023-02-04T02:07:57;5.03;83.34
72114;SHT31;59989;46.220;19.888;2023-02-04T02:11:02;4.97;83.51
72114;SHT31;59989;46.220;19.888;2023-02-04T02:14:04;4.94;83.76
72114;SHT31;59989;46.220;19.888;2023-02-04T02:17:07;4.87;84.07
72114;SHT31;59989;46.220;19.888;2023-02-04T02:20:13;4.88;83.98
72114;SHT31;59989;46.220;19.888;2023-02-04T02:23:50;4.88;84.08
72114;SHT31;59989;46.220;19.888;2023-02-04T02:26:55;4.84;84.12
72114;SHT31;59989;46.220;19.888;2023-02-04T02:29:59;4.83;84.32
72114;SHT31;59989;46.220;19.888;2023-02-04T02:33:02;4.72;84.68
72114;SHT31;59989;46.220;19.888;2023-02-04T02:36:05;4.76;84.70
72114;SHT31;59989;46.220;19.888;2023-02-04T02:39:08;4.72;84.93
72114;SHT31;59989;46.220;19.888;2023-02-04T02:42:13;4.74;84.75
72114;SHT31;59989;46.220;19.888;2023-02-04T02:45:26;4.76;84.78
72114;SHT31;59989;46.220;19.888;2023-02-04T02:48:29;4.67;85.08
72114;SHT31;59989;46.220;19.888;2023-02-04T02:51:32;4.67;85.25
72114;SHT31;59989;46.220;19.888;2023-02-04T02:54:35;4.73;85.00
72114;SHT31;59989;46.220;19.888;2023-02-04T02:57:39;4.76;84.89
72114;SHT31;59989;46.220;19.888;2023-02-04T03:00:41;4.86;84.40
72114;SHT31;59989;46.220;19.888;2023-02-04T03:03:48;4.83;84.49
72114;SHT31;59989;46.220;19.888;2023-02-04T03:06:53;4.93;84.06
72114;SHT31;59989;46.220;19.888;2023-02-04T03:09:57;4.90;84.29
72114;SHT31;59989;46.220;19.888;2023-02-04T03:12:59;4.84;84.46
72114;SHT31;59989;46.220;19.888;2023-02-04T03:16:04;4.88;84.28
72114;SHT31;59989;46.220;19.888;2023-02-04T03:19:07;4.87;84.35
72114;SHT31;59989;46.220;19.888;2023-02-04T03:22:10;4.84;84.59
72114;SHT31;59989;46.220;19.888;2023-02-04T03:25:12;4.90;84.36
72114;SHT31;59989;46.220;19.888;2023-02-04T03:28:15;5.03;83.71
72114;SHT31;59989;46.220;19.888;2023-02-04T03:31:18;5.08;83.65
72114;SHT31;59989;46.220;19.888;2023-02-04T03:34:21;5.20;83.10
72114;SHT31;59989;46.220;19.888;2023-02-04T03:37:24;5.39;82.33
72114;SHT31;59989;46.220;19.888;2023-02-04T03:40:26;5.31;82.68
72114;SHT31;59989;46.220;19.888;2023-02-04T03:43:32;5.21;83.08
72114;SHT31;59989;46.220;19.888;2023-02-04T03:46:35;5.36;82.49
72114;SHT31;59989;46.220;19.888;2023-02-04T03:49:37;5.45;82.04
72114;SHT31;59989;46.220;19.888;2023-02-04T03:52:40;5.53;81.54
72114;SHT31;59989;46.220;19.888;2023-02-04T03:55:42;5.49;81.92
72114;SHT31;59989;46.220;19.888;2023-02-04T03:58:45;5.52;81.89
72114;SHT31;59989;46.220;19.888;2023-02-04T04:01:47;5.66;81.02
72114;SHT31;59989;46.220;19.888;2023-02-04T04:04:50;5.69;81.05
72114;SHT31;59989;46.220;19.888;2023-02-04T04:07:53;5.70;80.81
72114;SHT31;59989;46.220;19.888;2023-02-04T04:10:55;5.76;80.54
72114;SHT31;59989;46.220;19.888;2023-02-04T04:13:57;5.73;80.48
72114;SHT31;59989;46.220;19.888;2023-02-04T04:17:00;5.77;79.95
72114;SHT31;59989;46.220;19.888;2023-02-04T04:20:03;6.03;78.17
72114;SHT31;59989;46.220;19.888;2023-02-04T04:23:06;5.97;78.58
72114;SHT31;59989;46.220;19.888;2023-02-04T04:26:09;5.92;78.66
72114;SHT31;59989;46.220;19.888;2023-02-04T04:29:11;5.87;78.77
72114;SHT31;59989;46.220;19.888;2023-02-04T04:32:14;5.79;79.29
72114;SHT31;59989;46.220;19.888;2023-02-04T04:35:16;5.73;79.50
72114;SHT31;59989;46.220;19.888;2023-02-04T04:38:19;5.63;79.93
72114;SHT31;59989;46.220;19.888;2023-02-04T04:41:21;5.62;79.87
72114;SHT31;59989;46.220;19.888;2023-02-04T04:44:24;5.52;80.46
72114;SHT31;59989;46.220;19.888;2023-02-04T04:47:26;5.39;81.16
72114;SHT31;59989;46.220;19.888;2023-02-04T04:50:29;5.42;80.57
72114;SHT31;59989;46.220;19.888;2023-02-04T04:53:32;5.39;80.58
72114;SHT31;59989;46.220;19.888;2023-02-04T04:56:34;5.36;80.56
72114;SHT31;59989;46.220;19.888;2023-02-04T04:59:37;5.32;81.16
72114;SHT31;59989;46.220;19.888;2023-02-04T05:02:40;5.32;80.95
72114;SHT31;59989;46.220;19.888;2023-02-04T05:05:43;5.25;81.12
72114;SHT31;59989;46.220;19.888;2023-02-04T05:08:45;5.25;81.15
72114;SHT31;59989;46.220;19.888;2023-02-04T05:11:48;5.24;81.29
72114;SHT31;59989;46.220;19.888;2023-02-04T05:14:51;5.15;81.65
72114;SHT31;59989;46.220;19.888;2023-02-04T05:17:53;5.21;81.27
72114;SHT31;59989;46.220;19.888;2023-02-04T05:20:56;5.21;81.66
72114;SHT31;59989;46.220;19.888;2023-02-04T05:23:58;5.32;81.19
72114;SHT31;59989;46.220;19.888;2023-02-04T05:27:00;5.38;81.06
72114;SHT31;59989;46.220;19.888;2023-02-04T05:30:03;5.42;80.68
72114;SHT31;59989;46.220;19.888;2023-02-04T05:33:05;5.51;80.38
72114;SHT31;59989;46.220;19.888;2023-02-04T05:36:08;5.53;80.77
72114;SHT31;59989;46.220;19.888;2023-02-04T05:39:10;5.60;80.48
72114;SHT31;59989;46.220;19.888;2023-02-04T05:42:13;5.60;80.76
72114;SHT31;59989;46.220;19.888;2023-02-04T05:45:15;5.52;81.40
72114;SHT31;59989;46.220;19.888;2023-02-04T05:48:20;5.55;81.54
72114;SHT31;59989;46.220;19.888;2023-02-04T05:51:23;5.59;81.14
72114;SHT31;59989;46.220;19.888;2023-02-04T05:54:25;5.63;81.44
72114;SHT31;59989;46.220;19.888;2023-02-04T05:57:28;5.69;81.12
72114;SHT31;59989;46.220;19.888;2023-02-04T06:00:30;5.63;81.50
72114;SHT31;59989;46.220;19.888;2023-02-04T06:03:33;5.58;82.35
72114;SHT31;59989;46.220;19.888;2023-02-04T06:06:36;5.65;82.21
72114;SHT31;59989;46.220;19.888;2023-02-04T06:09:38;5.55;82.74
72114;SHT31;59989;46.220;19.888;2023-02-04T06:12:41;5.48;83.38
72114;SHT31;59989;46.220;19.888;2023-02-04T06:15:43;5.42;83.90
72114;SHT31;59989;46.220;19.888;2023-02-04T06:18:46;5.46;83.87
72114;SHT31;59989;46.220;19.888;2023-02-04T06:21:48;5.44;83.94
72114;SHT31;59989;46.220;19.888;2023-02-04T06:24:51;5.44;84.03
72114;SHT31;59989;46.220;19.888;2023-02-04T06:27:53;5.38;84.38
72114;SHT31;59989;46.220;19.888;2023-02-04T06:30:56;5.32;84.92
72114;SHT31;59989;46.220;19.888;2023-02-04T06:33:58;5.31;85.27
72114;SHT31;59989;46.220;19.888;2023-02-04T06:37:01;5.31;85.02
72114;SHT31;59989;46.220;19.888;2023-02-04T06:40:04;5.34;85.03
72114;SHT31;59989;46.220;19.888;2023-02-04T06:43:07;5.34;84.98
72114;SHT31;59989;46.220;19.888;2023-02-04T06:46:09;5.41;84.43
72114;SHT31;59989;46.220;19.888;2023-02-04T06:49:12;5.44;84.38
72114;SHT31;59989;46.220;19.888;2023-02-04T06:52:15;5.41;84.40
72114;SHT31;59989;46.220;19.888;2023-02-04T06:55:17;5.46;83.41
72114;SHT31;59989;46.220;19.888;2023-02-04T06:58:20;5.63;81.67
72114;SHT31;59989;46.220;19.888;2023-02-04T07:01:22;5.66;81.73
72114;SHT31;59989;46.220;19.888;2023-02-04T07:04:25;5.65;82.00
72114;SHT31;59989;46.220;19.888;2023-02-04T07:07:27;5.86;80.09
72114;SHT31;59989;46.220;19.888;2023-02-04T07:10:30;5.92;80.20
72114;SHT31;59989;46.220;19.888;2023-02-04T07:13:34;5.93;79.99
72114;SHT31;59989;46.220;19.888;2023-02-04T07:16:36;5.92;79.81
72114;SHT31;59989;46.220;19.888;2023-02-04T07:19:39;5.96;78.60
72114;SHT31;59989;46.220;19.888;2023-02-04T07:22:41;6.01;78.49
72114;SHT31;59989;46.220;19.888;2023-02-04T07:25:44;5.96;79.21
72114;SHT31;59989;46.220;19.888;2023-02-04T07:28:47;6.03;78.70
72114;SHT31;59989;46.220;19.888;2023-02-04T07:31:50;5.86;80.44
72114;SHT31;59989;46.220;19.888;2023-02-04T07:34:56;5.77;80.71
72114;SHT31;59989;46.220;19.888;2023-02-04T07:37:58;5.73;80.40
72114;SHT31;59989;46.220;19.888;2023-02-04T07:41:01;5.63;81.18
72114;SHT31;59989;46.220;19.888;2023-02-04T07:44:03;5.65;81.20
72114;SHT31;59989;46.220;19.888;2023-02-04T07:47:06;5.72;80.08
72114;SHT31;59989;46.220;19.888;2023-02-04T07:50:09;5.72;79.56
72114;SHT31;59989;46.220;19.888;2023-02-04T07:53:12;5.87;77.22
72114;SHT31;59989;46.220;19.888;2023-02-04T07:56:14;5.93;76.82
72114;SHT31;59989;46.220;19.888;2023-02-04T07:59:17;6.09;75.83
72114;SHT31;59989;46.220;19.888;2023-02-04T08:02:19;6.16;75.45
72114;SHT31;59989;46.220;19.888;2023-02-04T08:05:22;6.06;72.70
72114;SHT31;59989;46.220;19.888;2023-02-04T08:08:24;5.92;71.54
72114;SHT31;59989;46.220;19.888;2023-02-04T08:11:27;5.85;71.82
72114;SHT31;59989;46.220;19.888;2023-02-04T08:14:30;5.87;71.08
72114;SHT31;59989;46.220;19.888;2023-02-04T08:17:33;5.87;73.01
72114;SHT31;59989;46.220;19.888;2023-02-04T08:20:35;5.94;71.97
72114;SHT31;59989;46.220;19.888;2023-02-04T08:23:38;5.93;74.09
72114;SHT31;59989;46.220;19.888;2023-02-04T08:26:43;5.90;72.58
72114;SHT31;59989;46.220;19.888;2023-02-04T08:29:45;5.92;72.29
72114;SHT31;59989;46.220;19.888;2023-02-04T08:32:48;5.82;73.19
72114;SHT31;59989;46.220;19.888;2023-02-04T08:35:50;5.83;72.20
72114;SHT31;59989;46.220;19.888;2023-02-04T08:38:53;5.74;71.23
72114;SHT31;59989;46.220;19.888;2023-02-04T08:41:56;5.77;70.49
72114;SHT31;59989;46.220;19.888;2023-02-04T08:44:59;5.86;70.76
72114;SHT31;59989;46.220;19.888;2023-02-04T08:48:01;5.94;69.93
72114;SHT31;59989;46.220;19.888;2023-02-04T08:51:04;6.04;72.69
72114;SHT31;59989;46.220;19.888;2023-02-04T08:54:07;6.03;72.28
72114;SHT31;59989;46.220;19.888;2023-02-04T08:57:10;5.92;70.75
72114;SHT31;59989;46.220;19.888;2023-02-04T09:00:13;5.92;71.59
72114;SHT31;59989;46.220;19.888;2023-02-04T09:03:15;6.04;72.34
72114;SHT31;59989;46.220;19.888;2023-02-04T09:06:18;5.90;71.14
72114;SHT31;59989;46.220;19.888;2023-02-04T09:09:20;5.74;68.31
72114;SHT31;59989;46.220;19.888;2023-02-04T09:12:25;5.74;70.71
72114;SHT31;59989;46.220;19.888;2023-02-04T09:15:27;5.74;68.24
72114;SHT31;59989;46.220;19.888;2023-02-04T09:18:30;5.63;68.42
72114;SHT31;59989;46.220;19.888;2023-02-04T09:21:33;5.67;68.90
72114;SHT31;59989;46.220;19.888;2023-02-04T09:24:36;5.48;67.99
72114;SHT31;59989;46.220;19.888;2023-02-04T09:27:39;5.60;67.12
72114;SHT31;59989;46.220;19.888;2023-02-04T09:30:45;5.90;66.40
72114;SHT31;59989;46.220;19.888;2023-02-04T09:33:48;5.77;65.90
72114;SHT31;59989;46.220;19.888;2023-02-04T09:36:51;5.63;67.01
72114;SHT31;59989;46.220;19.888;2023-02-04T09:39:53;5.69;67.34
72114;SHT31;59989;46.220;19.888;2023-02-04T09:42:56;5.92;66.58
72114;SHT31;59989;46.220;19.888;2023-02-04T09:46:01;5.45;66.57
72114;SHT31;59989;46.220;19.888;2023-02-04T09:49:04;5.20;67.53
72114;SHT31;59989;46.220;19.888;2023-02-04T09:52:10;5.00;68.17
72114;SHT31;59989;46.220;19.888;2023-02-04T09:55:16;5.04;69.52
72114;SHT31;59989;46.220;19.888;2023-02-04T09:58:21;4.94;69.18
72114;SHT31;59989;46.220;19.888;2023-02-04T10:01:25;5.00;69.74
72114;SHT31;59989;46.220;19.888;2023-02-04T10:04:29;4.91;68.95
72114;SHT31;59989;46.220;19.888;2023-02-04T10:07:32;4.90;68.73
72114;SHT31;59989;46.220;19.888;2023-02-04T10:10:34;4.79;68.29
72114;SHT31;59989;46.220;19.888;2023-02-04T10:13:41;4.86;68.10
72114;SHT31;59989;46.220;19.888;2023-02-04T10:16:56;4.87;68.51
72114;SHT31;59989;46.220;19.888;2023-02-04T10:20:01;4.93;69.50
72114;SHT31;59989;46.220;19.888;2023-02-04T10:23:05;4.84;67.98
72114;SHT31;59989;46.220;19.888;2023-02-04T10:26:14;4.73;66.94
72114;SHT31;59989;46.220;19.888;2023-02-04T10:29:20;4.83;67.45
72114;SHT31;59989;46.220;19.888;2023-02-04T10:32:28;4.83;67.12
72114;SHT31;59989;46.220;19.888;2023-02-04T10:35:31;4.91;67.86
72114;SHT31;59989;46.220;19.888;2023-02-04T10:38:33;4.81;67.31
72114;SHT31;59989;46.220;19.888;2023-02-04T10:41:37;4.72;66.61
72114;SHT31;59989;46.220;19.888;2023-02-04T10:44:45;4.69;66.62
72114;SHT31;59989;46.220;19.888;2023-02-04T10:47:52;4.73;67.46
72114;SHT31;59989;46.220;19.888;2023-02-04T10:50:56;4.80;67.67
72114;SHT31;59989;46.220;19.888;2023-02-04T10:54:02;4.81;66.80
72114;SHT31;59989;46.220;19.888;2023-02-04T10:57:26;5.05;65.39
72114;SHT31;59989;46.220;19.888;2023-02-04T11:00:29;5.87;64.98
72114;SHT31;59989;46.220;19.888;2023-02-04T11:03:33;6.28;62.40
72114;SHT31;59989;46.220;19.888;2023-02-04T11:06:35;6.35;62.81
72114;SHT31;59989;46.220;19.888;2023-02-04T11:09:42;5.38;64.30
72114;SHT31;59989;46.220;19.888;2023-02-04T11:19:50;5.03;65.89
72114;SHT31;59989;46.220;19.888;2023-02-04T11:22:53;5.07;65.47
72114;SHT31;59989;46.220;19.888;2023-02-04T11:26:10;5.05;65.31
72114;SHT31;59989;46.220;19.888;2023-02-04T11:32:34;4.90;66.03
72114;SHT31;59989;46.220;19.888;2023-02-04T11:35:59;4.90;66.30
72114;SHT31;59989;46.220;19.888;2023-02-04T11:39:12;4.94;66.10
72114;SHT31;59989;46.220;19.888;2023-02-04T11:42:28;4.90;66.54
72114;SHT31;59989;46.220;19.888;2023-02-04T11:45:34;4.88;67.15
72114;SHT31;59989;46.220;19.888;2023-02-04T11:48:41;4.83;67.91
72114;SHT31;59989;46.220;19.888;2023-02-04T11:51:44;4.81;69.33
72114;SHT31;59989;46.220;19.888;2023-02-04T11:54:58;4.53;70.35
72114;SHT31;59989;46.220;19.888;2023-02-04T11:58:01;4.31;71.64
72114;SHT31;59989;46.220;19.888;2023-02-04T12:01:03;4.24;72.17
72114;SHT31;59989;46.220;19.888;2023-02-04T12:04:21;4.19;73.02
72114;SHT31;59989;46.220;19.888;2023-02-04T12:07:27;4.05;74.34
72114;SHT31;59989;46.220;19.888;2023-02-04T12:10:32;3.99;73.89
72114;SHT31;59989;46.220;19.888;2023-02-04T12:13:47;3.91;74.50
72114;SHT31;59989;46.220;19.888;2023-02-04T12:16:50;3.78;75.28
72114;SHT31;59989;46.220;19.888;2023-02-04T12:19:53;3.42;78.27
72114;SHT31;59989;46.220;19.888;2023-02-04T12:22:56;3.28;80.14
72114;SHT31;59989;46.220;19.888;2023-02-04T12:26:00;3.25;81.05
72114;SHT31;59989;46.220;19.888;2023-02-04T12:29:02;3.32;80.74
72114;SHT31;59989;46.220;19.888;2023-02-04T12:32:06;3.36;80.41
72114;SHT31;59989;46.220;19.888;2023-02-04T12:35:09;3.57;78.29
72114;SHT31;59989;46.220;19.888;2023-02-04T12:38:11;3.94;73.66
72114;SHT31;59989;46.220;19.888;2023-02-04T12:41:14;4.17;70.89
72114;SHT31;59989;46.220;19.888;2023-02-04T12:44:16;4.32;69.54
72114;SHT31;59989;46.220;19.888;2023-02-04T12:47:19;4.36;67.75
72114;SHT31;59989;46.220;19.888;2023-02-04T12:50:21;4.52;65.52
72114;SHT31;59989;46.220;19.888;2023-02-04T12:53:24;4.62;64.56
72114;SHT31;59989;46.220;19.888;2023-02-04T12:56:26;4.70;63.94
72114;SHT31;59989;46.220;19.888;2023-02-04T12:59:29;4.80;61.25
72114;SHT31;59989;46.220;19.888;2023-02-04T13:02:32;4.88;61.85
72114;SHT31;59989;46.220;19.888;2023-02-04T13:05:35;4.86;60.25
72114;SHT31;59989;46.220;19.888;2023-02-04T13:08:38;5.01;60.66
72114;SHT31;59989;46.220;19.888;2023-02-04T13:11:40;5.07;59.16
72114;SHT31;59989;46.220;19.888;2023-02-04T13:14:43;4.93;58.57
72114;SHT31;59989;46.220;19.888;2023-02-04T13:17:46;4.80;59.01
72114;SHT31;59989;46.220;19.888;2023-02-04T13:20:49;4.86;57.09
72114;SHT31;59989;46.220;19.888;2023-02-04T13:23:51;5.11;56.23
72114;SHT31;59989;46.220;19.888;2023-02-04T13:26:54;5.18;55.50
72114;SHT31;59989;46.220;19.888;2023-02-04T13:29:56;5.11;55.54
72114;SHT31;59989;46.220;19.888;2023-02-04T13:33:00;5.00;55.32
72114;SHT31;59989;46.220;19.888;2023-02-04T13:36:03;4.98;54.75
72114;SHT31;59989;46.220;19.888;2023-02-04T13:39:05;5.00;54.21
72114;SHT31;59989;46.220;19.888;2023-02-04T13:42:08;5.01;54.65
72114;SHT31;59989;46.220;19.888;2023-02-04T13:45:10;5.01;53.82
72114;SHT31;59989;46.220;19.888;2023-02-04T13:48:14;4.88;51.97
72114;SHT31;59989;46.220;19.888;2023-02-04T13:51:17;4.76;52.49
72114;SHT31;59989;46.220;19.888;2023-02-04T13:54:20;4.69;52.52
72114;SHT31;59989;46.220;19.888;2023-02-04T13:57:23;4.67;53.11
72114;SHT31;59989;46.220;19.888;2023-02-04T14:00:25;4.66;53.07
72114;SHT31;59989;46.220;19.888;2023-02-04T14:03:28;4.66;53.95
72114;SHT31;59989;46.220;19.888;2023-02-04T14:06:31;4.66;52.89
72114;SHT31;59989;46.220;19.888;2023-02-04T14:09:39;4.70;53.57
72114;SHT31;59989;46.220;19.888;2023-02-04T14:12:41;4.67;53.29
72114;SHT31;59989;46.220;19.888;2023-02-04T14:15:44;4.72;53.30
72114;SHT31;59989;46.220;19.888;2023-02-04T14:18:47;4.86;52.67
72114;SHT31;59989;46.220;19.888;2023-02-04T14:21:49;5.04;51.78
72114;SHT31;59989;46.220;19.888;2023-02-04T14:24:52;5.18;50.81
72114;SHT31;59989;46.220;19.888;2023-02-04T14:27:55;5.23;49.40
72114;SHT31;59989;46.220;19.888;2023-02-04T14:31:01;5.25;49.17
72114;SHT31;59989;46.220;19.888;2023-02-04T14:34:03;5.25;48.40
72114;SHT31;59989;46.220;19.888;2023-02-04T14:37:06;5.25;48.51
72114;SHT31;59989;46.220;19.888;2023-02-04T14:40:10;5.08;48.24
72114;SHT31;59989;46.220;19.888;2023-02-04T14:43:13;4.94;47.94
72114;SHT31;59989;46.220;19.888;2023-02-04T14:46:16;4.77;47.82
72114;SHT31;59989;46.220;19.888;2023-02-04T14:49:19;4.63;47.45
72114;SHT31;59989;46.220;19.888;2023-02-04T14:52:22;4.53;48.10
72114;SHT31;59989;46.220;19.888;2023-02-04T14:55:25;4.42;49.33
72114;SHT31;59989;46.220;19.888;2023-02-04T14:58:28;4.21;48.86
72114;SHT31;59989;46.220;19.888;2023-02-04T15:01:30;4.07;49.46
72114;SHT31;59989;46.220;19.888;2023-02-04T15:04:33;3.98;51.10
72114;SHT31;59989;46.220;19.888;2023-02-04T15:07:36;3.78;51.55
72114;SHT31;59989;46.220;19.888;2023-02-04T15:10:39;3.67;51.84
72114;SHT31;59989;46.220;19.888;2023-02-04T15:13:42;3.64;52.86
72114;SHT31;59989;46.220;19.888;2023-02-04T15:16:45;3.59;52.90
72114;SHT31;59989;46.220;19.888;2023-02-04T15:19:49;3.55;54.16
72114;SHT31;59989;46.220;19.888;2023-02-04T15:22:52;3.50;53.77
72114;SHT31;59989;46.220;19.888;2023-02-04T15:25:57;3.40;54.74
72114;SHT31;59989;46.220;19.888;2023-02-04T15:29:00;3.35;54.74
72114;SHT31;59989;46.220;19.888;2023-02-04T15:32:03;3.28;54.67
72114;SHT31;59989;46.220;19.888;2023-02-04T15:35:05;3.26;54.02
72114;SHT31;59989;46.220;19.888;2023-02-04T15:38:09;3.15;53.98
72114;SHT31;59989;46.220;19.888;2023-02-04T15:41:12;3.02;53.95
72114;SHT31;59989;46.220;19.888;2023-02-04T15:44:15;2.94;52.62
72114;SHT31;59989;46.220;19.888;2023-02-04T15:47:17;2.84;52.82
72114;SHT31;59989;46.220;19.888;2023-02-04T15:50:22;2.74;53.28
72114;SHT31;59989;46.220;19.888;2023-02-04T15:53:24;2.57;53.99
72114;SHT31;59989;46.220;19.888;2023-02-04T15:56:27;2.49;54.39
72114;SHT31;59989;46.220;19.888;2023-02-04T15:59:29;2.34;55.08
72114;SHT31;59989;46.220;19.888;2023-02-04T16:02:32;2.30;55.15
72114;SHT31;59989;46.220;19.888;2023-02-04T16:05:34;2.18;55.90
72114;SHT31;59989;46.220;19.888;2023-02-04T16:08:37;2.11;56.13
72114;SHT31;59989;46.220;19.888;2023-02-04T16:11:40;2.08;55.92
72114;SHT31;59989;46.220;19.888;2023-02-04T16:14:42;2.03;55.77
72114;SHT31;59989;46.220;19.888;2023-02-04T16:17:45;1.94;56.61
72114;SHT31;59989;46.220;19.888;2023-02-04T16:20:52;1.88;57.06
72114;SHT31;59989;46.220;19.888;2023-02-04T16:23:55;1.78;57.87
72114;SHT31;59989;46.220;19.888;2023-02-04T16:26:57;1.78;58.53
72114;SHT31;59989;46.220;19.888;2023-02-04T16:30:01;1.71;58.57
72114;SHT31;59989;46.220;19.888;2023-02-04T16:33:04;1.77;58.00
72114;SHT31;59989;46.220;19.888;2023-02-04T16:36:08;1.68;58.49
72114;SHT31;59989;46.220;19.888;2023-02-04T16:39:13;1.74;57.45
72114;SHT31;59989;46.220;19.888;2023-02-04T16:42:15;1.71;57.83
72114;SHT31;59989;46.220;19.888;2023-02-04T16:45:18;1.68;57.91
72114;SHT31;59989;46.220;19.888;2023-02-04T16:48:20;1.55;59.01
72114;SHT31;59989;46.220;19.888;2023-02-04T16:51:23;1.53;59.21
72114;SHT31;59989;46.220;19.888;2023-02-04T16:54:26;1.47;59.22
72114;SHT31;59989;46.220;19.888;2023-02-04T16:57:29;1.39;59.95
72114;SHT31;59989;46.220;19.888;2023-02-04T17:00:32;1.36;60.04
72114;SHT31;59989;46.220;19.888;2023-02-04T17:03:35;1.30;60.42
72114;SHT31;59989;46.220;19.888;2023-02-04T17:06:38;1.36;60.97
72114;SHT31;59989;46.220;19.888;2023-02-04T17:09:41;1.37;59.88
72114;SHT31;59989;46.220;19.888;2023-02-04T17:12:43;1.39;59.88
72114;SHT31;59989;46.220;19.888;2023-02-04T17:15:46;1.39;59.54
72114;SHT31;59989;46.220;19.888;2023-02-04T17:18:48;1.34;59.90
72114;SHT31;59989;46.220;19.888;2023-02-04T17:21:51;1.44;59.51
72114;SHT31;59989;46.220;19.888;2023-02-04T17:24:53;1.40;59.69
72114;SHT31;59989;46.220;19.888;2023-02-04T17:27:56;1.40;59.59
72114;SHT31;59989;46.220;19.888;2023-02-04T17:30:59;1.36;59.69
72114;SHT31;59989;46.220;19.888;2023-02-04T17:34:02;1.39;59.96
72114;SHT31;59989;46.220;19.888;2023-02-04T17:37:05;1.24;61.19
72114;SHT31;59989;46.220;19.888;2023-02-04T17:40:09;1.20;61.10
72114;SHT31;59989;46.220;19.888;2023-02-04T17:43:15;1.19;61.68
72114;SHT31;59989;46.220;19.888;2023-02-04T17:46:18;1.19;61.74
72114;SHT31;59989;46.220;19.888;2023-02-04T17:49:21;1.17;61.60
72114;SHT31;59989;46.220;19.888;2023-02-04T17:52:24;1.16;62.80
72114;SHT31;59989;46.220;19.888;2023-02-04T17:55:29;1.17;62.25
72114;SHT31;59989;46.220;19.888;2023-02-04T17:58:32;1.19;61.84
72114;SHT31;59989;46.220;19.888;2023-02-04T18:01:38;1.23;61.23
72114;SHT31;59989;46.220;19.888;2023-02-04T18:04:42;1.12;61.98
72114;SHT31;59989;46.220;19.888;2023-02-04T18:08:20;1.09;60.69
72114;SHT31;59989;46.220;19.888;2023-02-04T18:11:25;1.10;60.06
72114;SHT31;59989;46.220;19.888;2023-02-04T18:14:29;1.20;58.63
72114;SHT31;59989;46.220;19.888;2023-02-04T18:17:31;1.29;57.72
72114;SHT31;59989;46.220;19.888;2023-02-04T18:20:34;1.15;58.83
72114;SHT31;59989;46.220;19.888;2023-02-04T18:23:36;1.07;58.55
72114;SHT31;59989;46.220;19.888;2023-02-04T18:26:53;1.12;58.39
72114;SHT31;59989;46.220;19.888;2023-02-04T18:29:57;1.09;58.42
72114;SHT31;59989;46.220;19.888;2023-02-04T18:36:20;1.05;58.39
72114;SHT31;59989;46.220;19.888;2023-02-04T18:39:27;1.02;58.58
72114;SHT31;59989;46.220;19.888;2023-02-04T18:42:30;0.99;59.34
72114;SHT31;59989;46.220;19.888;2023-02-04T18:45:34;1.03;59.44
72114;SHT31;59989;46.220;19.888;2023-02-04T18:52:20;0.97;60.67
72114;SHT31;59989;46.220;19.888;2023-02-04T18:55:34;0.96;60.65
72114;SHT31;59989;46.220;19.888;2023-02-04T18:58:41;1.00;60.40
72114;SHT31;59989;46.220;19.888;2023-02-04T19:01:46;1.00;60.86
72114;SHT31;59989;46.220;19.888;2023-02-04T19:04:49;1.03;60.41
72114;SHT31;59989;46.220;19.888;2023-02-04T19:11:36;1.00;61.00
72114;SHT31;59989;46.220;19.888;2023-02-04T19:14:41;1.03;59.83
72114;SHT31;59989;46.220;19.888;2023-02-04T19:17:45;1.09;58.87
72114;SHT31;59989;46.220;19.888;2023-02-04T19:20:49;1.09;56.97
72114;SHT31;59989;46.220;19.888;2023-02-04T19:24:14;1.10;55.67
72114;SHT31;59989;46.220;19.888;2023-02-04T19:27:31;1.03;55.61
72114;SHT31;59989;46.220;19.888;2023-02-04T19:30:42;1.02;54.74
72114;SHT31;59989;46.220;19.888;2023-02-04T19:33:47;0.97;54.57
72114;SHT31;59989;46.220;19.888;2023-02-04T19:36:49;0.92;54.32
72114;SHT31;59989;46.220;19.888;2023-02-04T19:39:53;0.91;53.05
72114;SHT31;59989;46.220;19.888;2023-02-04T19:46:23;0.86;51.74